sensor_id;sensor_type;location;lat;lon;timestamp;P1;durP1;ratioP1;P2;durP2;ratioP2
13218;SDS011;6674;49.152;11.918;2023-04-15T00:00:51;4.93;;;4.53;;
13218;SDS011;6674;49.152;11.918;2023-04-15T00:03:18;4.53;;;4.13;;
13218;SDS011;6674;49.152;11.918;2023-04-15T00:05:46;4.23;;;3.93;;
13218;SDS011;6674;49.152;11.918;2023-04-15T00:08:13;4.80;;;4.40;;
13218;SDS011;6674;49.152;11.918;2023-04-15T00:10:40;4.43;;;4.07;;
13218;SDS011;6674;49.152;11.918;2023-04-15T00:13:09;4.67;;;4.27;;
13218;SDS011;6674;49.152;11.918;2023-04-15T00:15:36;4.10;;;3.80;;
13218;SDS011;6674;49.152;11.918;2023-04-15T00:18:03;4.03;;;3.63;;
13218;SDS011;6674;49.152;11.918;2023-04-15T00:20:30;4.00;;;3.70;;
13218;SDS011;6674;49.152;11.918;2023-04-15T00:22:57;4.00;;;3.70;;
13218;SDS011;6674;49.152;11.918;2023-04-15T00:25:24;4.00;;;3.70;;
13218;SDS011;6674;49.152;11.918;2023-04-15T00:27:51;3.77;;;3.47;;
13218;SDS011;6674;49.152;11.918;2023-04-15T00:30:20;3.90;;;3.60;;
13218;SDS011;6674;49.152;11.918;2023-04-15T00:32:48;3.80;;;3.50;;
13218;SDS011;6674;49.152;11.918;2023-04-15T00:35:14;4.00;;;3.70;;
13218;SDS011;6674;49.152;11.918;2023-04-15T00:37:42;4.17;;;3.77;;
13218;SDS011;6674;49.152;11.918;2023-04-15T00:40:10;4.40;;;4.00;;
13218;SDS011;6674;49.152;11.918;2023-04-15T00:42:38;4.40;;;4.10;;
13218;SDS011;6674;49.152;11.918;2023-04-15T00:45:05;4.17;;;3.87;;
13218;SDS011;6674;49.152;11.918;2023-04-15T00:47:34;4.57;;;4.23;;
13218;SDS011;6674;49.152;11.918;2023-04-15T00:50:02;4.90;;;4.60;;
13218;SDS011;6674;49.152;11.918;2023-04-15T00:52:29;4.83;;;4.27;;
13218;SDS011;6674;49.152;11.918;2023-04-15T00:54:56;4.33;;;4.00;;
13218;SDS011;6674;49.152;11.918;2023-04-15T00:57:22;4.70;;;4.30;;
13218;SDS011;6674;49.152;11.918;2023-04-15T00:59:50;4.90;;;4.50;;
13218;SDS011;6674;49.152;11.918;2023-04-15T01:02:18;5.10;;;4.70;;
13218;SDS011;6674;49.152;11.918;2023-04-15T01:04:46;4.90;;;4.50;;
13218;SDS011;6674;49.152;11.918;2023-04-15T01:07:13;5.20;;;4.80;;
13218;SDS011;6674;49.152;11.918;2023-04-15T01:09:40;5.40;;;4.90;;
13218;SDS011;6674;49.152;11.918;2023-04-15T01:12:07;5.20;;;4.80;;
13218;SDS011;6674;49.152;11.918;2023-04-15T01:14:37;5.57;;;5.17;;
13218;SDS011;6674;49.152;11.918;2023-04-15T01:17:04;6.00;;;5.37;;
13218;SDS011;6674;49.152;11.918;2023-04-15T01:19:31;5.63;;;5.23;;
13218;SDS011;6674;49.152;11.918;2023-04-15T01:22:00;5.90;;;5.30;;
13218;SDS011;6674;49.152;11.918;2023-04-15T01:24:28;5.17;;;4.77;;
13218;SDS011;6674;49.152;11.918;2023-04-15T01:26:58;5.37;;;4.93;;
13218;SDS011;6674;49.152;11.918;2023-04-15T01:29:25;5.33;;;4.93;;
13218;SDS011;6674;49.152;11.918;2023-04-15T01:31:53;5.67;;;5.17;;
13218;SDS011;6674;49.152;11.918;2023-04-15T01:34:20;5.40;;;5.00;;
13218;SDS011;6674;49.152;11.918;2023-04-15T01:36:47;5.07;;;4.67;;
13218;SDS011;6674;49.152;11.918;2023-04-15T01:39:14;5.57;;;5.07;;
13218;SDS011;6674;49.152;11.918;2023-04-15T01:41:41;4.93;;;4.53;;
13218;SDS011;6674;49.152;11.918;2023-04-15T01:44:10;5.30;;;4.90;;
13218;SDS011;6674;49.152;11.918;2023-04-15T01:46:37;5.07;;;4.70;;
13218;SDS011;6674;49.152;11.918;2023-04-15T01:49:04;6.03;;;5.43;;
13218;SDS011;6674;49.152;11.918;2023-04-15T01:51:32;5.20;;;4.73;;
13218;SDS011;6674;49.152;11.918;2023-04-15T01:53:59;5.27;;;4.87;;
13218;SDS011;6674;49.152;11.918;2023-04-15T01:56:27;5.50;;;5.00;;
13218;SDS011;6674;49.152;11.918;2023-04-15T01:58:54;4.83;;;4.43;;
13218;SDS011;6674;49.152;11.918;2023-04-15T02:01:22;5.13;;;4.73;;
13218;SDS011;6674;49.152;11.918;2023-04-15T02:03:49;5.60;;;5.10;;
13218;SDS011;6674;49.152;11.918;2023-04-15T02:06:16;5.03;;;4.63;;
13218;SDS011;6674;49.152;11.918;2023-04-15T02:08:43;5.37;;;4.83;;
13218;SDS011;6674;49.152;11.918;2023-04-15T02:11:10;5.13;;;4.63;;
13218;SDS011;6674;49.152;11.918;2023-04-15T02:13:36;5.37;;;4.97;;
13218;SDS011;6674;49.152;11.918;2023-04-15T02:16:03;5.43;;;5.03;;
13218;SDS011;6674;49.152;11.918;2023-04-15T02:18:42;5.30;;;4.80;;
13218;SDS011;6674;49.152;11.918;2023-04-15T02:21:12;5.63;;;5.10;;
13218;SDS011;6674;49.152;11.918;2023-04-15T02:23:39;5.10;;;4.70;;
13218;SDS011;6674;49.152;11.918;2023-04-15T02:26:05;4.97;;;4.57;;
13218;SDS011;6674;49.152;11.918;2023-04-15T02:28:32;5.00;;;4.63;;
13218;SDS011;6674;49.152;11.918;2023-04-15T02:30:59;5.20;;;4.73;;
13218;SDS011;6674;49.152;11.918;2023-04-15T02:33:26;4.50;;;4.20;;
13218;SDS011;6674;49.152;11.918;2023-04-15T02:35:54;4.80;;;4.40;;
13218;SDS011;6674;49.152;11.918;2023-04-15T02:38:21;4.63;;;4.23;;
13218;SDS011;6674;49.152;11.918;2023-04-15T02:40:47;5.30;;;4.90;;
13218;SDS011;6674;49.152;11.918;2023-04-15T02:43:15;5.20;;;4.70;;
13218;SDS011;6674;49.152;11.918;2023-04-15T02:45:45;4.60;;;4.30;;
13218;SDS011;6674;49.152;11.918;2023-04-15T02:48:12;4.90;;;4.50;;
13218;SDS011;6674;49.152;11.918;2023-04-15T02:50:39;5.20;;;4.70;;
13218;SDS011;6674;49.152;11.918;2023-04-15T02:53:07;4.83;;;4.43;;
13218;SDS011;6674;49.152;11.918;2023-04-15T02:55:34;4.53;;;4.20;;
13218;SDS011;6674;49.152;11.918;2023-04-15T02:58:01;5.40;;;4.90;;
13218;SDS011;6674;49.152;11.918;2023-04-15T03:00:28;5.10;;;4.70;;
13218;SDS011;6674;49.152;11.918;2023-04-15T03:02:56;5.30;;;4.80;;
13218;SDS011;6674;49.152;11.918;2023-04-15T03:05:24;4.93;;;4.53;;
13218;SDS011;6674;49.152;11.918;2023-04-15T03:07:51;5.27;;;4.77;;
13218;SDS011;6674;49.152;11.918;2023-04-15T03:10:20;5.73;;;5.23;;
13218;SDS011;6674;49.152;11.918;2023-04-15T03:12:47;5.67;;;5.07;;
13218;SDS011;6674;49.152;11.918;2023-04-15T03:15:14;4.97;;;4.57;;
13218;SDS011;6674;49.152;11.918;2023-04-15T03:17:40;5.70;;;5.20;;
13218;SDS011;6674;49.152;11.918;2023-04-15T03:20:08;5.43;;;4.93;;
13218;SDS011;6674;49.152;11.918;2023-04-15T03:22:35;5.63;;;5.13;;
13218;SDS011;6674;49.152;11.918;2023-04-15T03:25:02;6.17;;;5.67;;
13218;SDS011;6674;49.152;11.918;2023-04-15T03:27:30;5.53;;;5.13;;
13218;SDS011;6674;49.152;11.918;2023-04-15T03:29:57;7.20;;;6.60;;
13218;SDS011;6674;49.152;11.918;2023-04-15T03:32:24;6.50;;;6.00;;
13218;SDS011;6674;49.152;11.918;2023-04-15T03:34:51;6.30;;;5.80;;
13218;SDS011;6674;49.152;11.918;2023-04-15T03:37:18;7.10;;;6.50;;
13218;SDS011;6674;49.152;11.918;2023-04-15T03:39:45;7.33;;;6.00;;
13218;SDS011;6674;49.152;11.918;2023-04-15T03:42:11;7.30;;;6.60;;
13218;SDS011;6674;49.152;11.918;2023-04-15T03:44:39;6.67;;;6.17;;
13218;SDS011;6674;49.152;11.918;2023-04-15T03:47:06;7.37;;;6.77;;
13218;SDS011;6674;49.152;11.918;2023-04-15T03:49:33;6.33;;;5.83;;
13218;SDS011;6674;49.152;11.918;2023-04-15T03:52:01;7.30;;;6.70;;
13218;SDS011;6674;49.152;11.918;2023-04-15T03:54:28;6.30;;;5.63;;
13218;SDS011;6674;49.152;11.918;2023-04-15T03:56:55;6.20;;;5.70;;
13218;SDS011;6674;49.152;11.918;2023-04-15T03:59:21;7.13;;;6.47;;
13218;SDS011;6674;49.152;11.918;2023-04-15T04:01:50;7.63;;;6.93;;
13218;SDS011;6674;49.152;11.918;2023-04-15T04:04:17;7.30;;;6.70;;
13218;SDS011;6674;49.152;11.918;2023-04-15T04:06:43;7.17;;;6.47;;
13218;SDS011;6674;49.152;11.918;2023-04-15T04:09:10;6.27;;;5.77;;
13218;SDS011;6674;49.152;11.918;2023-04-15T04:11:37;7.10;;;6.00;;
13218;SDS011;6674;49.152;11.918;2023-04-15T04:14:04;7.27;;;6.67;;
13218;SDS011;6674;49.152;11.918;2023-04-15T04:16:30;7.57;;;6.87;;
13218;SDS011;6674;49.152;11.918;2023-04-15T04:18:59;7.23;;;6.60;;
13218;SDS011;6674;49.152;11.918;2023-04-15T04:21:25;7.50;;;6.90;;
13218;SDS011;6674;49.152;11.918;2023-04-15T04:23:52;8.30;;;7.50;;
13218;SDS011;6674;49.152;11.918;2023-04-15T04:26:20;7.47;;;6.80;;
13218;SDS011;6674;49.152;11.918;2023-04-15T04:28:47;7.10;;;6.50;;
13218;SDS011;6674;49.152;11.918;2023-04-15T04:31:14;7.40;;;6.70;;
13218;SDS011;6674;49.152;11.918;2023-04-15T04:33:41;8.07;;;7.27;;
13218;SDS011;6674;49.152;11.918;2023-04-15T04:36:09;7.20;;;6.60;;
13218;SDS011;6674;49.152;11.918;2023-04-15T04:38:35;6.80;;;6.23;;
13218;SDS011;6674;49.152;11.918;2023-04-15T04:41:02;7.97;;;7.27;;
13218;SDS011;6674;49.152;11.918;2023-04-15T04:43:29;8.37;;;7.67;;
13218;SDS011;6674;49.152;11.918;2023-04-15T04:45:56;7.60;;;6.90;;
13218;SDS011;6674;49.152;11.918;2023-04-15T04:48:22;6.93;;;6.33;;
13218;SDS011;6674;49.152;11.918;2023-04-15T04:50:50;7.00;;;6.40;;
13218;SDS011;6674;49.152;11.918;2023-04-15T04:53:18;6.37;;;5.87;;
13218;SDS011;6674;49.152;11.918;2023-04-15T04:55:44;7.23;;;6.63;;
13218;SDS011;6674;49.152;11.918;2023-04-15T04:58:11;6.53;;;6.03;;
13218;SDS011;6674;49.152;11.918;2023-04-15T05:00:38;7.10;;;6.40;;
13218;SDS011;6674;49.152;11.918;2023-04-15T05:03:06;6.37;;;5.77;;
13218;SDS011;6674;49.152;11.918;2023-04-15T05:05:33;6.40;;;5.80;;
13218;SDS011;6674;49.152;11.918;2023-04-15T05:08:01;6.03;;;5.53;;
13218;SDS011;6674;49.152;11.918;2023-04-15T05:10:29;5.93;;;5.40;;
13218;SDS011;6674;49.152;11.918;2023-04-15T05:12:56;6.30;;;5.70;;
13218;SDS011;6674;49.152;11.918;2023-04-15T05:15:22;6.00;;;5.50;;
13218;SDS011;6674;49.152;11.918;2023-04-15T05:17:49;6.87;;;6.27;;
13218;SDS011;6674;49.152;11.918;2023-04-15T05:20:16;6.10;;;5.57;;
13218;SDS011;6674;49.152;11.918;2023-04-15T05:22:43;6.97;;;6.27;;
13218;SDS011;6674;49.152;11.918;2023-04-15T05:25:09;6.20;;;5.60;;
13218;SDS011;6674;49.152;11.918;2023-04-15T05:27:38;5.80;;;5.30;;
13218;SDS011;6674;49.152;11.918;2023-04-15T05:30:05;5.63;;;5.13;;
13218;SDS011;6674;49.152;11.918;2023-04-15T05:32:33;6.00;;;5.50;;
13218;SDS011;6674;49.152;11.918;2023-04-15T05:34:59;6.10;;;5.50;;
13218;SDS011;6674;49.152;11.918;2023-04-15T05:37:26;5.30;;;4.90;;
13218;SDS011;6674;49.152;11.918;2023-04-15T05:39:53;6.07;;;5.50;;
13218;SDS011;6674;49.152;11.918;2023-04-15T05:42:19;5.60;;;5.10;;
13218;SDS011;6674;49.152;11.918;2023-04-15T05:44:47;4.83;;;4.43;;
13218;SDS011;6674;49.152;11.918;2023-04-15T05:47:14;5.63;;;5.03;;
13218;SDS011;6674;49.152;11.918;2023-04-15T05:49:41;5.13;;;4.63;;
13218;SDS011;6674;49.152;11.918;2023-04-15T05:52:07;5.73;;;5.13;;
13218;SDS011;6674;49.152;11.918;2023-04-15T05:54:34;4.90;;;4.50;;
13218;SDS011;6674;49.152;11.918;2023-04-15T05:57:01;4.87;;;4.47;;
13218;SDS011;6674;49.152;11.918;2023-04-15T05:59:28;4.77;;;4.37;;
13218;SDS011;6674;49.152;11.918;2023-04-15T06:01:56;4.90;;;4.50;;
13218;SDS011;6674;49.152;11.918;2023-04-15T06:04:23;5.80;;;5.20;;
13218;SDS011;6674;49.152;11.918;2023-04-15T06:06:50;4.70;;;4.30;;
13218;SDS011;6674;49.152;11.918;2023-04-15T06:09:16;4.90;;;4.43;;
13218;SDS011;6674;49.152;11.918;2023-04-15T06:11:43;4.73;;;4.33;;
13218;SDS011;6674;49.152;11.918;2023-04-15T06:14:10;4.77;;;4.37;;
13218;SDS011;6674;49.152;11.918;2023-04-15T06:16:36;4.97;;;4.57;;
13218;SDS011;6674;49.152;11.918;2023-04-15T06:19:05;5.20;;;4.80;;
13218;SDS011;6674;49.152;11.918;2023-04-15T06:21:33;4.77;;;4.23;;
13218;SDS011;6674;49.152;11.918;2023-04-15T06:23:59;4.27;;;3.70;;
13218;SDS011;6674;49.152;11.918;2023-04-15T06:26:27;4.20;;;3.80;;
13218;SDS011;6674;49.152;11.918;2023-04-15T06:28:53;4.40;;;4.00;;
13218;SDS011;6674;49.152;11.918;2023-04-15T06:31:20;4.30;;;3.90;;
13218;SDS011;6674;49.152;11.918;2023-04-15T06:33:47;3.47;;;3.17;;
13218;SDS011;6674;49.152;11.918;2023-04-15T06:36:15;3.83;;;3.53;;
13218;SDS011;6674;49.152;11.918;2023-04-15T06:38:42;3.80;;;3.50;;
13218;SDS011;6674;49.152;11.918;2023-04-15T06:41:08;3.60;;;3.30;;
13218;SDS011;6674;49.152;11.918;2023-04-15T06:43:35;3.53;;;3.23;;
13218;SDS011;6674;49.152;11.918;2023-04-15T06:46:02;4.00;;;3.60;;
13218;SDS011;6674;49.152;11.918;2023-04-15T06:48:28;3.80;;;3.50;;
13218;SDS011;6674;49.152;11.918;2023-04-15T06:50:55;4.20;;;3.90;;
13218;SDS011;6674;49.152;11.918;2023-04-15T06:53:24;4.00;;;3.70;;
13218;SDS011;6674;49.152;11.918;2023-04-15T06:55:52;4.67;;;4.27;;
13218;SDS011;6674;49.152;11.918;2023-04-15T06:58:18;4.27;;;3.97;;
13218;SDS011;6674;49.152;11.918;2023-04-15T07:00:45;4.20;;;3.80;;
13218;SDS011;6674;49.152;11.918;2023-04-15T07:03:13;3.63;;;3.33;;
13218;SDS011;6674;49.152;11.918;2023-04-15T07:05:40;4.00;;;3.70;;
13218;SDS011;6674;49.152;11.918;2023-04-15T07:08:07;3.83;;;3.53;;
13218;SDS011;6674;49.152;11.918;2023-04-15T07:10:36;3.93;;;3.63;;
13218;SDS011;6674;49.152;11.918;2023-04-15T07:13:03;3.03;;;2.80;;
13218;SDS011;6674;49.152;11.918;2023-04-15T07:15:29;3.57;;;3.27;;
13218;SDS011;6674;49.152;11.918;2023-04-15T07:17:57;3.60;;;3.30;;
13218;SDS011;6674;49.152;11.918;2023-04-15T07:20:23;3.70;;;3.40;;
13218;SDS011;6674;49.152;11.918;2023-04-15T07:22:50;3.60;;;3.30;;
13218;SDS011;6674;49.152;11.918;2023-04-15T07:25:17;3.50;;;3.27;;
13218;SDS011;6674;49.152;11.918;2023-04-15T07:27:48;3.97;;;3.67;;
13218;SDS011;6674;49.152;11.918;2023-04-15T07:30:15;3.80;;;3.50;;
13218;SDS011;6674;49.152;11.918;2023-04-15T07:32:43;3.17;;;2.97;;
13218;SDS011;6674;49.152;11.918;2023-04-15T07:35:10;3.43;;;3.17;;
13218;SDS011;6674;49.152;11.918;2023-04-15T07:37:37;3.70;;;3.40;;
13218;SDS011;6674;49.152;11.918;2023-04-15T07:40:07;3.93;;;3.63;;
13218;SDS011;6674;49.152;11.918;2023-04-15T07:42:35;3.43;;;3.13;;
13218;SDS011;6674;49.152;11.918;2023-04-15T07:45:04;3.13;;;2.93;;
13218;SDS011;6674;49.152;11.918;2023-04-15T07:47:31;3.07;;;2.87;;
13218;SDS011;6674;49.152;11.918;2023-04-15T07:49:58;3.27;;;2.97;;
13218;SDS011;6674;49.152;11.918;2023-04-15T07:52:25;2.80;;;2.60;;
13218;SDS011;6674;49.152;11.918;2023-04-15T07:54:51;2.70;;;2.50;;
13218;SDS011;6674;49.152;11.918;2023-04-15T07:57:18;3.23;;;2.97;;
13218;SDS011;6674;49.152;11.918;2023-04-15T07:59:46;3.03;;;2.77;;
13218;SDS011;6674;49.152;11.918;2023-04-15T08:02:14;2.73;;;2.53;;
13218;SDS011;6674;49.152;11.918;2023-04-15T08:04:41;2.80;;;2.60;;
13218;SDS011;6674;49.152;11.918;2023-04-15T08:07:08;2.90;;;2.70;;
13218;SDS011;6674;49.152;11.918;2023-04-15T08:09:34;2.83;;;2.63;;
13218;SDS011;6674;49.152;11.918;2023-04-15T08:12:01;2.50;;;2.30;;
13218;SDS011;6674;49.152;11.918;2023-04-15T08:14:29;2.77;;;2.57;;
13218;SDS011;6674;49.152;11.918;2023-04-15T08:16:55;2.80;;;2.60;;
13218;SDS011;6674;49.152;11.918;2023-04-15T08:19:23;2.73;;;2.53;;
13218;SDS011;6674;49.152;11.918;2023-04-15T08:21:50;2.73;;;2.47;;
13218;SDS011;6674;49.152;11.918;2023-04-15T08:24:17;2.40;;;2.20;;
13218;SDS011;6674;49.152;11.918;2023-04-15T08:26:43;2.70;;;2.50;;
13218;SDS011;6674;49.152;11.918;2023-04-15T08:29:11;2.53;;;2.33;;
13218;SDS011;6674;49.152;11.918;2023-04-15T08:31:37;2.50;;;2.30;;
13218;SDS011;6674;49.152;11.918;2023-04-15T08:34:04;2.50;;;2.30;;
13218;SDS011;6674;49.152;11.918;2023-04-15T08:36:32;2.57;;;2.37;;
13218;SDS011;6674;49.152;11.918;2023-04-15T08:38:59;2.77;;;2.47;;
13218;SDS011;6674;49.152;11.918;2023-04-15T08:41:27;2.57;;;2.37;;
13218;SDS011;6674;49.152;11.918;2023-04-15T08:44:02;3.00;;;2.80;;
13218;SDS011;6674;49.152;11.918;2023-04-15T08:46:30;2.80;;;2.50;;
13218;SDS011;6674;49.152;11.918;2023-04-15T08:48:59;2.43;;;2.33;;
13218;SDS011;6674;49.152;11.918;2023-04-15T08:51:28;2.80;;;2.60;;
13218;SDS011;6674;49.152;11.918;2023-04-15T08:53:57;2.87;;;2.67;;
13218;SDS011;6674;49.152;11.918;2023-04-15T08:56:25;2.57;;;2.37;;
13218;SDS011;6674;49.152;11.918;2023-04-15T08:58:51;2.50;;;2.30;;
13218;SDS011;6674;49.152;11.918;2023-04-15T09:01:19;3.27;;;2.93;;
13218;SDS011;6674;49.152;11.918;2023-04-15T09:03:46;3.00;;;2.80;;
13218;SDS011;6674;49.152;11.918;2023-04-15T09:06:16;2.97;;;2.73;;
13218;SDS011;6674;49.152;11.918;2023-04-15T09:08:43;3.00;;;2.80;;
13218;SDS011;6674;49.152;11.918;2023-04-15T09:11:11;2.40;;;2.20;;
13218;SDS011;6674;49.152;11.918;2023-04-15T09:13:38;2.63;;;2.43;;
13218;SDS011;6674;49.152;11.918;2023-04-15T09:16:05;2.90;;;2.60;;
13218;SDS011;6674;49.152;11.918;2023-04-15T09:18:34;2.50;;;2.30;;
13218;SDS011;6674;49.152;11.918;2023-04-15T09:21:04;2.80;;;2.50;;
13218;SDS011;6674;49.152;11.918;2023-04-15T09:23:33;2.70;;;2.50;;
13218;SDS011;6674;49.152;11.918;2023-04-15T09:26:01;2.20;;;2.00;;
13218;SDS011;6674;49.152;11.918;2023-04-15T09:28:30;1.80;;;1.70;;
13218;SDS011;6674;49.152;11.918;2023-04-15T09:30:57;2.17;;;1.97;;
13218;SDS011;6674;49.152;11.918;2023-04-15T09:33:24;2.10;;;2.00;;
13218;SDS011;6674;49.152;11.918;2023-04-15T09:35:55;2.67;;;2.10;;
13218;SDS011;6674;49.152;11.918;2023-04-15T09:38:24;2.17;;;2.03;;
13218;SDS011;6674;49.152;11.918;2023-04-15T09:40:50;1.87;;;1.77;;
13218;SDS011;6674;49.152;11.918;2023-04-15T09:43:17;2.60;;;2.40;;
13218;SDS011;6674;49.152;11.918;2023-04-15T09:45:50;2.13;;;2.03;;
13218;SDS011;6674;49.152;11.918;2023-04-15T09:48:18;2.10;;;2.00;;
13218;SDS011;6674;49.152;11.918;2023-04-15T09:50:46;2.10;;;2.00;;
13218;SDS011;6674;49.152;11.918;2023-04-15T09:53:15;2.20;;;2.10;;
13218;SDS011;6674;49.152;11.918;2023-04-15T09:55:44;2.80;;;2.60;;
13218;SDS011;6674;49.152;11.918;2023-04-15T09:58:18;2.23;;;2.13;;
13218;SDS011;6674;49.152;11.918;2023-04-15T10:00:46;2.17;;;2.07;;
13218;SDS011;6674;49.152;11.918;2023-04-15T10:03:16;2.23;;;2.07;;
13218;SDS011;6674;49.152;11.918;2023-04-15T10:05:45;2.77;;;2.57;;
13218;SDS011;6674;49.152;11.918;2023-04-15T10:08:14;2.30;;;2.10;;
13218;SDS011;6674;49.152;11.918;2023-04-15T10:10:43;6.53;;;5.00;;
13218;SDS011;6674;49.152;11.918;2023-04-15T10:13:11;2.07;;;1.97;;
13218;SDS011;6674;49.152;11.918;2023-04-15T10:15:39;9.27;;;7.03;;
13218;SDS011;6674;49.152;11.918;2023-04-15T10:18:09;2.60;;;2.40;;
13218;SDS011;6674;49.152;11.918;2023-04-15T10:20:38;2.10;;;2.00;;
13218;SDS011;6674;49.152;11.918;2023-04-15T10:23:07;1.80;;;1.70;;
13218;SDS011;6674;49.152;11.918;2023-04-15T10:25:34;1.87;;;1.77;;
13218;SDS011;6674;49.152;11.918;2023-04-15T10:28:03;2.13;;;1.93;;
13218;SDS011;6674;49.152;11.918;2023-04-15T10:30:32;2.10;;;2.00;;
13218;SDS011;6674;49.152;11.918;2023-04-15T10:32:59;1.83;;;1.73;;
13218;SDS011;6674;49.152;11.918;2023-04-15T10:35:27;2.10;;;2.00;;
13218;SDS011;6674;49.152;11.918;2023-04-15T10:37:56;2.40;;;2.20;;
13218;SDS011;6674;49.152;11.918;2023-04-15T10:40:26;1.43;;;1.37;;
13218;SDS011;6674;49.152;11.918;2023-04-15T10:42:55;1.87;;;1.70;;
13218;SDS011;6674;49.152;11.918;2023-04-15T10:45:24;1.70;;;1.60;;
13218;SDS011;6674;49.152;11.918;2023-04-15T10:47:53;2.03;;;1.93;;
13218;SDS011;6674;49.152;11.918;2023-04-15T10:50:21;1.40;;;1.30;;
13218;SDS011;6674;49.152;11.918;2023-04-15T10:52:51;2.00;;;1.90;;
13218;SDS011;6674;49.152;11.918;2023-04-15T10:55:20;3.27;;;2.97;;
13218;SDS011;6674;49.152;11.918;2023-04-15T10:57:50;1.57;;;1.47;;
13218;SDS011;6674;49.152;11.918;2023-04-15T11:00:18;1.10;;;1.10;;
13218;SDS011;6674;49.152;11.918;2023-04-15T11:02:47;1.30;;;1.20;;
13218;SDS011;6674;49.152;11.918;2023-04-15T11:05:18;1.97;;;1.87;;
13218;SDS011;6674;49.152;11.918;2023-04-15T11:07:49;1.07;;;1.07;;
13218;SDS011;6674;49.152;11.918;2023-04-15T11:13:20;1.50;;;1.40;;
13218;SDS011;6674;49.152;11.918;2023-04-15T11:15:49;1.20;;;1.20;;
13218;SDS011;6674;49.152;11.918;2023-04-15T11:18:16;0.83;;;0.83;;
13218;SDS011;6674;49.152;11.918;2023-04-15T11:20:45;1.90;;;1.80;;
13218;SDS011;6674;49.152;11.918;2023-04-15T11:23:13;1.40;;;1.30;;
13218;SDS011;6674;49.152;11.918;2023-04-15T11:25:41;1.67;;;1.57;;
13218;SDS011;6674;49.152;11.918;2023-04-15T11:28:09;0.80;;;0.60;;
13218;SDS011;6674;49.152;11.918;2023-04-15T11:30:37;0.80;;;0.80;;
13218;SDS011;6674;49.152;11.918;2023-04-15T11:33:06;6.33;;;4.80;;
13218;SDS011;6674;49.152;11.918;2023-04-15T11:35:34;0.70;;;0.70;;
13218;SDS011;6674;49.152;11.918;2023-04-15T11:38:02;0.60;;;0.60;;
13218;SDS011;6674;49.152;11.918;2023-04-15T11:40:29;0.60;;;0.60;;
13218;SDS011;6674;49.152;11.918;2023-04-15T11:43:04;0.90;;;0.90;;
13218;SDS011;6674;49.152;11.918;2023-04-15T11:45:33;0.93;;;0.80;;
13218;SDS011;6674;49.152;11.918;2023-04-15T11:48:04;0.60;;;0.60;;
13218;SDS011;6674;49.152;11.918;2023-04-15T11:50:32;0.60;;;0.60;;
13218;SDS011;6674;49.152;11.918;2023-04-15T11:53:00;0.80;;;0.40;;
13218;SDS011;6674;49.152;11.918;2023-04-15T11:55:28;1.83;;;1.43;;
13218;SDS011;6674;49.152;11.918;2023-04-15T11:58:04;0.93;;;0.93;;
13218;SDS011;6674;49.152;11.918;2023-04-15T12:00:36;0.97;;;0.70;;
13218;SDS011;6674;49.152;11.918;2023-04-15T12:03:16;0.70;;;0.70;;
13218;SDS011;6674;49.152;11.918;2023-04-15T12:06:02;0.80;;;0.80;;
13218;SDS011;6674;49.152;11.918;2023-04-15T12:09:02;0.97;;;0.97;;
13218;SDS011;6674;49.152;11.918;2023-04-15T12:11:36;0.80;;;0.80;;
13218;SDS011;6674;49.152;11.918;2023-04-15T12:14:05;0.50;;;0.50;;
13218;SDS011;6674;49.152;11.918;2023-04-15T12:16:36;0.60;;;0.60;;
13218;SDS011;6674;49.152;11.918;2023-04-15T12:19:06;0.70;;;0.70;;
13218;SDS011;6674;49.152;11.918;2023-04-15T12:21:35;0.90;;;0.90;;
13218;SDS011;6674;49.152;11.918;2023-04-15T12:24:05;0.80;;;0.80;;
13218;SDS011;6674;49.152;11.918;2023-04-15T12:26:34;0.77;;;0.77;;
13218;SDS011;6674;49.152;11.918;2023-04-15T12:29:03;1.10;;;1.10;;
13218;SDS011;6674;49.152;11.918;2023-04-15T12:31:31;0.90;;;0.90;;
13218;SDS011;6674;49.152;11.918;2023-04-15T12:33:59;0.70;;;0.70;;
13218;SDS011;6674;49.152;11.918;2023-04-15T12:36:26;1.00;;;1.00;;
13218;SDS011;6674;49.152;11.918;2023-04-15T12:38:54;0.70;;;0.70;;
13218;SDS011;6674;49.152;11.918;2023-04-15T12:41:21;0.97;;;0.97;;
13218;SDS011;6674;49.152;11.918;2023-04-15T12:43:48;0.80;;;0.80;;
13218;SDS011;6674;49.152;11.918;2023-04-15T12:46:15;0.70;;;0.70;;
13218;SDS011;6674;49.152;11.918;2023-04-15T12:48:42;1.10;;;1.07;;
13218;SDS011;6674;49.152;11.918;2023-04-15T12:51:10;1.30;;;1.20;;
13218;SDS011;6674;49.152;11.918;2023-04-15T12:53:37;1.63;;;1.53;;
13218;SDS011;6674;49.152;11.918;2023-04-15T12:56:03;0.97;;;0.87;;
13218;SDS011;6674;49.152;11.918;2023-04-15T12:58:31;5.30;;;4.17;;
13218;SDS011;6674;49.152;11.918;2023-04-15T13:00:58;4.13;;;3.70;;
13218;SDS011;6674;49.152;11.918;2023-04-15T13:03:25;1.23;;;1.20;;
13218;SDS011;6674;49.152;11.918;2023-04-15T13:05:52;9.30;;;8.50;;
13218;SDS011;6674;49.152;11.918;2023-04-15T13:08:21;1.00;;;1.00;;
13218;SDS011;6674;49.152;11.918;2023-04-15T13:10:47;1.00;;;1.00;;
13218;SDS011;6674;49.152;11.918;2023-04-15T13:13:14;0.70;;;0.70;;
13218;SDS011;6674;49.152;11.918;2023-04-15T13:15:41;1.17;;;1.17;;
13218;SDS011;6674;49.152;11.918;2023-04-15T13:18:09;1.40;;;1.30;;
13218;SDS011;6674;49.152;11.918;2023-04-15T13:20:37;0.90;;;0.90;;
13218;SDS011;6674;49.152;11.918;2023-04-15T13:23:03;1.03;;;1.00;;
13218;SDS011;6674;49.152;11.918;2023-04-15T13:25:31;1.53;;;1.33;;
13218;SDS011;6674;49.152;11.918;2023-04-15T13:27:58;1.53;;;1.43;;
13218;SDS011;6674;49.152;11.918;2023-04-15T13:30:25;1.47;;;1.37;;
13218;SDS011;6674;49.152;11.918;2023-04-15T13:32:52;1.40;;;1.30;;
13218;SDS011;6674;49.152;11.918;2023-04-15T13:35:20;1.87;;;1.77;;
13218;SDS011;6674;49.152;11.918;2023-04-15T13:37:46;1.80;;;1.70;;
13218;SDS011;6674;49.152;11.918;2023-04-15T13:40:13;1.50;;;1.40;;
13218;SDS011;6674;49.152;11.918;2023-04-15T13:42:42;1.33;;;1.33;;
13218;SDS011;6674;49.152;11.918;2023-04-15T13:45:09;1.50;;;1.40;;
13218;SDS011;6674;49.152;11.918;2023-04-15T13:47:36;1.40;;;1.13;;
13218;SDS011;6674;49.152;11.918;2023-04-15T13:50:04;1.53;;;1.43;;
13218;SDS011;6674;49.152;11.918;2023-04-15T13:52:31;1.97;;;1.87;;
13218;SDS011;6674;49.152;11.918;2023-04-15T13:54:58;2.07;;;1.97;;
13218;SDS011;6674;49.152;11.918;2023-04-15T13:57:25;1.90;;;1.80;;
13218;SDS011;6674;49.152;11.918;2023-04-15T13:59:53;2.00;;;1.90;;
13218;SDS011;6674;49.152;11.918;2023-04-15T14:02:20;2.17;;;2.07;;
13218;SDS011;6674;49.152;11.918;2023-04-15T14:04:48;2.20;;;2.10;;
13218;SDS011;6674;49.152;11.918;2023-04-15T14:07:14;3.00;;;2.80;;
13218;SDS011;6674;49.152;11.918;2023-04-15T14:09:42;3.57;;;3.27;;
13218;SDS011;6674;49.152;11.918;2023-04-15T14:12:08;3.10;;;2.90;;
13218;SDS011;6674;49.152;11.918;2023-04-15T14:14:35;2.80;;;2.60;;
13218;SDS011;6674;49.152;11.918;2023-04-15T14:17:03;2.57;;;2.37;;
13218;SDS011;6674;49.152;11.918;2023-04-15T14:19:31;2.60;;;2.40;;
13218;SDS011;6674;49.152;11.918;2023-04-15T14:21:58;2.37;;;2.27;;
13218;SDS011;6674;49.152;11.918;2023-04-15T14:24:24;2.40;;;2.20;;
13218;SDS011;6674;49.152;11.918;2023-04-15T14:26:51;2.27;;;2.00;;
13218;SDS011;6674;49.152;11.918;2023-04-15T14:29:18;2.20;;;2.00;;
13218;SDS011;6674;49.152;11.918;2023-04-15T14:31:45;1.90;;;1.80;;
13218;SDS011;6674;49.152;11.918;2023-04-15T14:34:16;2.10;;;2.00;;
13218;SDS011;6674;49.152;11.918;2023-04-15T14:36:42;2.63;;;2.43;;
13218;SDS011;6674;49.152;11.918;2023-04-15T14:39:09;4.77;;;4.27;;
13218;SDS011;6674;49.152;11.918;2023-04-15T14:41:36;2.70;;;2.50;;
13218;SDS011;6674;49.152;11.918;2023-04-15T14:44:03;3.20;;;2.90;;
13218;SDS011;6674;49.152;11.918;2023-04-15T14:46:30;2.47;;;2.37;;
13218;SDS011;6674;49.152;11.918;2023-04-15T14:48:57;2.33;;;2.23;;
13218;SDS011;6674;49.152;11.918;2023-04-15T14:51:25;3.60;;;3.30;;
13218;SDS011;6674;49.152;11.918;2023-04-15T14:53:52;2.93;;;2.63;;